createdAt,value
2023-08-04T00:01:58.357Z,5.10
2023-08-04T00:04:01.324Z,6.05
2023-08-04T00:06:09.572Z,4.78
2023-08-04T00:08:14.435Z,5.28
2023-08-04T00:10:17.376Z,4.90
2023-08-04T00:12:20.311Z,5.50
2023-08-04T00:14:23.310Z,4.38
2023-08-04T00:16:27.657Z,5.05
2023-08-04T00:18:30.677Z,5.85
2023-08-04T00:20:33.585Z,5.25
2023-08-04T00:22:36.603Z,4.80
2023-08-04T00:24:39.553Z,5.35
2023-08-04T00:26:42.434Z,5.30
2023-08-04T00:28:45.404Z,5.50
2023-08-04T00:30:48.823Z,5.28
2023-08-04T00:32:53.285Z,5.32
2023-08-04T00:34:55.222Z,5.68
2023-08-04T00:36:58.237Z,5.97
2023-08-04T00:39:01.195Z,6.35
2023-08-04T00:41:04.557Z,5.82
2023-08-04T00:43:08.233Z,5.25
2023-08-04T00:45:12.260Z,5.72
2023-08-04T00:47:15.420Z,5.20
2023-08-04T00:49:20.109Z,5.35
2023-08-04T00:51:23.108Z,5.20
2023-08-04T00:53:26.106Z,5.55
2023-08-04T00:55:28.484Z,5.25
2023-08-04T00:57:31.463Z,5.97
2023-08-04T00:59:34.408Z,5.78
2023-08-04T01:01:36.555Z,5.60
2023-08-04T01:03:40.404Z,5.78
2023-08-04T01:05:47.147Z,4.72
2023-08-04T01:07:58.259Z,5.60
2023-08-04T01:10:09.021Z,5.35
2023-08-04T01:12:16.782Z,6.82
2023-08-04T01:14:20.701Z,6.30
2023-08-04T01:16:23.867Z,5.90
2023-08-04T01:18:26.952Z,5.70
2023-08-04T01:20:29.983Z,6.32
2023-08-04T01:22:34.192Z,6.15
2023-08-04T01:24:37.157Z,6.80
2023-08-04T01:26:42.810Z,6.00
2023-08-04T01:28:47.146Z,6.35
2023-08-04T01:30:51.919Z,6.03
2023-08-04T01:32:55.084Z,6.60
2023-08-04T01:35:00.552Z,5.80
2023-08-04T01:37:03.653Z,6.80
2023-08-04T01:39:08.060Z,6.47
2023-08-04T01:41:10.976Z,6.28
2023-08-04T01:43:14.019Z,7.15
2023-08-04T01:45:17.183Z,6.40
2023-08-04T01:47:20.283Z,6.65
2023-08-04T01:49:23.270Z,6.47
2023-08-04T01:51:26.190Z,7.47
2023-08-04T01:53:29.180Z,7.72
2023-08-04T01:55:33.435Z,6.63
2023-08-04T01:57:36.514Z,7.07
2023-08-04T01:59:39.479Z,5.82
2023-08-04T02:01:43.693Z,6.35
2023-08-04T02:03:46.610Z,7.13
2023-08-04T02:05:50.432Z,5.35
2023-08-04T02:07:53.374Z,6.20
2023-08-04T02:09:56.332Z,6.10
2023-08-04T02:12:01.023Z,6.07
2023-08-04T02:14:03.978Z,6.20
2023-08-04T02:16:07.069Z,5.55
2023-08-04T02:18:10.102Z,6.50
2023-08-04T02:20:13.413Z,6.10
2023-08-04T02:22:15.335Z,5.88
2023-08-04T02:24:18.473Z,6.38
2023-08-04T02:26:21.402Z,5.85
2023-08-04T02:28:25.684Z,6.93
2023-08-04T02:30:28.679Z,6.30
2023-08-04T02:32:32.160Z,6.35
2023-08-04T02:34:35.102Z,6.82
2023-08-04T02:36:38.187Z,7.57
2023-08-04T02:38:41.176Z,7.43
2023-08-04T02:40:44.070Z,7.88
2023-08-04T02:42:47.099Z,8.75
2023-08-04T02:44:56.342Z,7.57
2023-08-04T02:46:59.473Z,8.70
2023-08-04T02:49:03.203Z,9.00
2023-08-04T02:51:08.663Z,8.65
2023-08-04T02:53:11.628Z,8.80
2023-08-04T02:55:14.961Z,9.13
2023-08-04T02:57:17.929Z,9.57
2023-08-04T02:59:20.822Z,10.23
2023-08-04T03:01:25.238Z,10.18
2023-08-04T03:03:27.199Z,11.02
2023-08-04T03:05:30.176Z,10.75
2023-08-04T03:07:33.859Z,9.50
2023-08-04T03:09:36.766Z,9.85
2023-08-04T03:11:39.681Z,10.10
2023-08-04T03:13:42.592Z,11.35
2023-08-04T03:15:44.505Z,8.80
2023-08-04T03:17:48.949Z,11.23
2023-08-04T03:19:52.521Z,10.10
2023-08-04T03:21:55.486Z,11.30
2023-08-04T03:23:58.445Z,10.00
2023-08-04T03:26:01.342Z,10.40
2023-08-04T03:28:03.300Z,10.80
2023-08-04T03:30:07.010Z,9.15
2023-08-04T03:32:09.926Z,11.05
2023-08-04T03:34:14.172Z,11.13
2023-08-04T03:36:17.148Z,10.32
2023-08-04T03:38:20.116Z,10.77
2023-08-04T03:40:23.127Z,10.90
2023-08-04T03:42:26.121Z,10.30
2023-08-04T03:44:29.092Z,10.23
2023-08-04T03:46:32.114Z,11.13
2023-08-04T03:48:35.177Z,10.88
2023-08-04T03:50:39.634Z,11.82
2023-08-04T03:52:42.556Z,11.95
2023-08-04T03:54:45.506Z,9.93
2023-08-04T03:56:48.423Z,11.52
2023-08-04T03:58:52.299Z,10.63
2023-08-04T04:00:55.400Z,12.43
2023-08-04T04:02:58.331Z,11.32
2023-08-04T04:05:01.342Z,11.88
2023-08-04T04:07:06.222Z,11.05
2023-08-04T04:09:09.122Z,10.10
2023-08-04T04:11:12.099Z,11.15
2023-08-04T04:13:15.027Z,11.18
2023-08-04T04:15:18.007Z,10.57
2023-08-04T04:17:20.971Z,9.98
2023-08-04T04:19:23.950Z,10.98
2023-08-04T04:21:26.952Z,11.85
2023-08-04T04:23:31.408Z,10.80
2023-08-04T04:25:34.335Z,12.68
2023-08-04T04:27:37.301Z,12.02
2023-08-04T04:29:40.269Z,12.48
2023-08-04T04:31:43.248Z,12.20
2023-08-04T04:33:46.159Z,11.70
2023-08-04T04:35:50.197Z,11.98
2023-08-04T04:37:53.139Z,13.02
2023-08-04T04:39:57.500Z,12.85
2023-08-04T04:42:00.409Z,13.20
2023-08-04T04:44:03.505Z,11.50
2023-08-04T04:46:06.467Z,13.30
2023-08-04T04:48:09.452Z,12.85
2023-08-04T04:50:12.414Z,12.93
2023-08-04T04:52:17.182Z,13.07
2023-08-04T04:54:20.294Z,12.68
2023-08-04T04:56:25.730Z,13.25
2023-08-04T04:58:29.008Z,12.75
2023-08-04T05:00:32.700Z,13.18
2023-08-04T05:02:35.615Z,13.05
2023-08-04T05:04:38.518Z,13.30
2023-08-04T05:06:41.433Z,12.02
2023-08-04T05:08:44.392Z,12.70
2023-08-04T05:10:52.044Z,12.38
2023-08-04T05:12:56.404Z,12.63
2023-08-04T05:14:59.294Z,13.43
2023-08-04T05:17:02.281Z,12.65
2023-08-04T05:19:05.168Z,12.77
2023-08-04T05:21:08.085Z,12.65
2023-08-04T05:23:11.040Z,13.43
2023-08-04T05:25:14.029Z,15.07
2023-08-04T05:27:16.981Z,13.13
2023-08-04T05:29:24.282Z,13.80
2023-08-04T05:31:27.218Z,13.88
2023-08-04T05:33:31.430Z,14.23
2023-08-04T05:35:38.687Z,13.75
2023-08-04T05:37:41.633Z,14.48
2023-08-04T05:39:44.555Z,16.40
2023-08-04T05:41:49.272Z,14.60
2023-08-04T05:43:52.380Z,13.32
2023-08-04T05:45:56.794Z,13.20
2023-08-04T05:47:59.869Z,14.10
2023-08-04T05:50:02.911Z,13.80
2023-08-04T05:52:06.255Z,15.50
2023-08-04T05:54:09.235Z,14.02
2023-08-04T05:56:12.393Z,14.40
2023-08-04T05:58:15.378Z,14.30
2023-08-04T06:00:18.631Z,13.73
2023-08-04T06:02:23.131Z,14.32
2023-08-04T06:04:28.754Z,14.43
2023-08-04T06:06:31.853Z,14.95
2023-08-04T06:08:34.958Z,13.70
2023-08-04T06:10:37.992Z,13.10
2023-08-04T06:12:40.033Z,14.18
2023-08-04T06:14:44.338Z,15.13
2023-08-04T06:16:47.261Z,14.45
2023-08-04T06:18:51.545Z,15.45
2023-08-04T06:20:54.604Z,14.88
2023-08-04T06:22:57.516Z,14.43
2023-08-04T06:25:00.456Z,14.30
2023-08-04T06:27:04.556Z,14.57
2023-08-04T06:29:07.493Z,14.52
2023-08-04T06:31:10.501Z,15.02
2023-08-04T06:33:13.636Z,15.15
2023-08-04T06:35:18.257Z,14.90
2023-08-04T06:37:20.304Z,16.27
2023-08-04T06:39:23.417Z,14.88
2023-08-04T06:41:26.375Z,15.43
2023-08-04T06:43:29.341Z,15.02
2023-08-04T06:45:31.376Z,13.55
2023-08-04T06:47:34.343Z,14.65
2023-08-04T06:49:36.352Z,14.02
2023-08-04T06:51:40.870Z,14.35
2023-08-04T06:53:43.866Z,14.65
2023-08-04T06:55:47.562Z,13.75
2023-08-04T06:57:50.640Z,12.40
2023-08-04T06:59:53.643Z,12.88
2023-08-04T07:01:55.591Z,12.18
2023-08-04T07:03:58.566Z,10.75
2023-08-04T07:06:02.079Z,11.88
2023-08-04T07:08:06.429Z,10.07
2023-08-04T07:10:11.879Z,8.85
2023-08-04T07:12:14.831Z,9.60
2023-08-04T07:14:17.867Z,10.00
2023-08-04T07:16:20.900Z,9.27
2023-08-04T07:18:24.013Z,9.18
2023-08-04T07:20:26.173Z,10.85
2023-08-04T07:22:29.132Z,9.32
2023-08-04T07:24:33.452Z,9.60
2023-08-04T07:26:36.505Z,8.75
2023-08-04T07:28:38.561Z,8.75
2023-08-04T07:30:41.734Z,8.15
2023-08-04T07:32:45.006Z,8.23
2023-08-04T07:34:48.107Z,8.30
2023-08-04T07:36:51.316Z,7.18
2023-08-04T07:38:54.378Z,7.95
2023-08-04T07:40:59.104Z,7.05
2023-08-04T07:43:02.096Z,6.53
2023-08-04T07:45:05.438Z,5.80
2023-08-04T07:47:08.466Z,6.20
2023-08-04T07:49:11.577Z,6.13
2023-08-04T07:51:14.581Z,5.95
2023-08-04T07:53:23.253Z,6.15
2023-08-04T07:55:26.237Z,5.65
2023-08-04T07:57:30.894Z,5.97
2023-08-04T07:59:34.117Z,5.55
2023-08-04T08:01:37.079Z,5.57
2023-08-04T08:03:40.164Z,4.60
2023-08-04T08:05:43.290Z,4.60
2023-08-04T08:07:46.537Z,4.55
2023-08-04T08:09:49.594Z,4.35
2023-08-04T08:11:52.774Z,4.78
2023-08-04T08:13:57.083Z,4.18
2023-08-04T08:15:59.032Z,4.40
2023-08-04T08:18:02.063Z,3.92
2023-08-04T08:20:05.584Z,4.25
2023-08-04T08:22:08.532Z,3.85
2023-08-04T08:24:11.948Z,3.83
2023-08-04T08:26:17.062Z,3.80
2023-08-04T08:28:20.328Z,5.10
2023-08-04T08:30:24.706Z,4.93
2023-08-04T08:32:27.794Z,4.53
2023-08-04T08:34:30.847Z,4.95
2023-08-04T08:36:33.740Z,5.18
2023-08-04T08:38:36.664Z,4.43
2023-08-04T08:40:39.623Z,5.03
2023-08-04T08:42:42.702Z,5.00
2023-08-04T08:44:45.672Z,5.05
2023-08-04T08:46:49.087Z,3.85
2023-08-04T08:48:52.293Z,3.35
2023-08-04T08:50:59.952Z,3.80
2023-08-04T08:53:05.502Z,3.75
2023-08-04T08:55:09.570Z,3.75
2023-08-04T08:57:13.642Z,4.05
2023-08-04T08:59:16.891Z,4.32
2023-08-04T09:01:20.704Z,3.80
2023-08-04T09:03:25.240Z,5.38
2023-08-04T09:05:28.200Z,4.20
2023-08-04T09:07:31.255Z,3.35
2023-08-04T09:09:35.735Z,3.20
2023-08-04T09:11:38.783Z,2.85
2023-08-04T09:13:42.756Z,2.97
2023-08-04T09:15:49.810Z,3.42
2023-08-04T09:17:52.863Z,2.75
2023-08-04T09:19:57.274Z,2.78
2023-08-04T09:22:00.253Z,2.50
2023-08-04T09:24:04.100Z,2.80
2023-08-04T09:26:07.077Z,2.50
2023-08-04T09:28:15.327Z,3.15
2023-08-04T09:30:19.374Z,2.85
2023-08-04T09:32:24.000Z,2.78
2023-08-04T09:34:26.947Z,2.63
2023-08-04T09:36:31.797Z,2.83
2023-08-04T09:38:35.404Z,2.30
2023-08-04T09:40:38.491Z,2.58
2023-08-04T09:42:42.005Z,2.08
2023-08-04T09:44:52.237Z,2.15
2023-08-04T09:46:55.628Z,2.30
2023-08-04T09:49:00.363Z,1.73
2023-08-04T09:51:07.705Z,2.20
2023-08-04T09:53:12.178Z,1.98
2023-08-04T09:55:15.367Z,1.80
2023-08-04T09:57:17.409Z,2.28
2023-08-04T09:59:20.708Z,2.22
2023-08-04T10:01:23.728Z,2.30
2023-08-04T10:03:27.151Z,2.38
2023-08-04T10:05:31.103Z,2.75
2023-08-04T10:07:34.192Z,2.67
2023-08-04T10:09:37.802Z,3.20
2023-08-04T10:11:40.788Z,2.47
2023-08-04T10:13:45.127Z,3.15
2023-08-04T10:15:48.304Z,2.95
2023-08-04T10:17:51.320Z,2.40
2023-08-04T10:20:03.680Z,2.80
2023-08-04T10:22:07.902Z,2.50
2023-08-04T10:24:11.902Z,2.40
2023-08-04T10:26:15.480Z,2.22
2023-08-04T10:28:19.145Z,2.15
2023-08-04T10:30:25.129Z,2.40
2023-08-04T10:32:36.611Z,2.22
2023-08-04T10:34:43.440Z,2.80
2023-08-04T10:37:00.640Z,2.63
2023-08-04T10:39:03.637Z,2.40
2023-08-04T10:41:09.407Z,2.42
2023-08-04T10:43:13.788Z,2.33
2023-08-04T10:45:16.962Z,2.20
2023-08-04T10:47:33.642Z,2.53
2023-08-04T10:49:36.874Z,2.13
2023-08-04T10:51:39.948Z,2.00
2023-08-04T10:53:43.059Z,2.03
2023-08-04T10:55:53.461Z,1.88
2023-08-04T10:57:56.611Z,1.70
2023-08-04T11:00:01.226Z,3.08
2023-08-04T11:02:04.408Z,2.50
2023-08-04T11:04:07.346Z,1.65
2023-08-04T11:06:10.342Z,1.67
2023-08-04T11:08:13.452Z,2.35
2023-08-04T11:10:16.450Z,1.63
2023-08-04T11:12:19.719Z,2.28
2023-08-04T11:14:22.703Z,1.98
2023-08-04T11:16:26.056Z,1.88
2023-08-04T11:18:32.089Z,1.90
2023-08-04T11:20:35.189Z,1.92
2023-08-04T11:22:39.020Z,1.52
2023-08-04T11:24:42.185Z,1.42
2023-08-04T11:26:45.408Z,1.75
2023-08-04T11:28:51.693Z,1.73
2023-08-04T11:30:55.592Z,1.30
2023-08-04T11:33:00.187Z,1.90
2023-08-04T11:35:03.478Z,1.45
2023-08-04T11:37:06.524Z,1.40
2023-08-04T11:39:08.585Z,2.00
2023-08-04T11:41:14.345Z,1.27
2023-08-04T11:43:17.500Z,1.73
2023-08-04T11:45:20.705Z,1.58
2023-08-04T11:47:26.130Z,1.75
2023-08-04T11:49:30.943Z,1.92
2023-08-04T11:51:33.938Z,1.33
2023-08-04T11:53:38.013Z,1.48
2023-08-04T11:55:55.144Z,1.30
2023-08-04T11:57:58.108Z,1.55
2023-08-04T12:00:02.257Z,1.27
2023-08-04T12:02:16.146Z,1.67
2023-08-04T12:04:23.186Z,1.80
2023-08-04T12:06:28.370Z,1.73
2023-08-04T12:08:31.537Z,1.48
2023-08-04T12:10:34.570Z,1.50
2023-08-04T12:12:38.761Z,1.13
2023-08-04T12:15:00.267Z,1.48
2023-08-04T12:17:05.669Z,2.13
2023-08-04T12:19:08.106Z,1.48
2023-08-04T12:21:12.343Z,1.50
2023-08-04T12:23:16.018Z,1.17
2023-08-04T12:25:19.552Z,1.40
2023-08-04T12:27:22.594Z,1.13
2023-08-04T12:29:26.112Z,1.20
2023-08-04T12:31:29.271Z,1.20
2023-08-04T12:33:32.264Z,1.30
2023-08-04T12:35:35.388Z,1.55
2023-08-04T12:37:38.458Z,1.10
2023-08-04T12:39:43.151Z,1.50
2023-08-04T12:41:48.245Z,1.27
2023-08-04T12:43:51.533Z,1.50
2023-08-04T12:45:54.699Z,1.40
2023-08-04T12:47:58.036Z,1.10
2023-08-04T12:50:01.054Z,1.40
2023-08-04T12:52:04.505Z,1.20
2023-08-04T12:54:07.496Z,1.23
2023-08-04T12:56:12.045Z,1.17
2023-08-04T12:58:15.015Z,1.45
2023-08-04T13:00:18.725Z,1.30
2023-08-04T13:02:21.818Z,1.20
2023-08-04T13:04:24.790Z,1.40
2023-08-04T13:06:27.807Z,1.30
2023-08-04T13:08:30.699Z,1.40
2023-08-04T13:10:34.078Z,1.35
2023-08-04T13:12:38.825Z,0.95
2023-08-04T13:14:41.780Z,1.35
2023-08-04T13:16:44.786Z,1.20
2023-08-04T13:18:47.957Z,1.17
2023-08-04T13:20:51.767Z,1.20
2023-08-04T13:22:54.785Z,1.15
2023-08-04T13:24:57.807Z,1.00
2023-08-04T13:26:59.758Z,1.27
2023-08-04T13:29:04.428Z,1.20
2023-08-04T13:31:09.466Z,1.30
2023-08-04T13:33:13.027Z,1.13
2023-08-04T13:35:16.438Z,1.38
2023-08-04T13:37:18.478Z,1.70
2023-08-04T13:39:21.411Z,1.45
2023-08-04T13:41:24.482Z,1.38
2023-08-04T13:43:28.257Z,1.52
2023-08-04T13:45:32.616Z,1.60
2023-08-04T13:47:35.979Z,1.60
2023-08-04T13:49:38.959Z,1.60
2023-08-04T13:51:41.244Z,1.50
2023-08-04T13:53:44.423Z,1.52
2023-08-04T13:55:47.689Z,1.58
2023-08-04T13:57:50.867Z,1.70
2023-08-04T13:59:54.018Z,0.77
2023-08-04T14:01:58.439Z,1.00
2023-08-04T14:04:01.568Z,1.10
2023-08-04T14:06:05.661Z,1.30
2023-08-04T14:08:09.033Z,1.30
2023-08-04T14:10:12.282Z,1.30
2023-08-04T14:12:15.302Z,1.50
2023-08-04T14:14:18.710Z,1.60
2023-08-04T14:16:21.935Z,1.60
2023-08-04T14:18:26.217Z,1.40
2023-08-04T14:20:29.334Z,1.52
2023-08-04T14:22:32.368Z,1.20
2023-08-04T14:24:35.419Z,1.65
2023-08-04T14:26:38.380Z,1.17
2023-08-04T14:28:40.323Z,1.70
2023-08-04T14:30:43.351Z,1.58
2023-08-04T14:32:46.358Z,1.40
2023-08-04T14:34:50.714Z,1.38
2023-08-04T14:36:54.243Z,1.15
2023-08-04T14:38:57.324Z,1.55
2023-08-04T14:41:00.768Z,1.08
2023-08-04T14:43:03.760Z,1.63
2023-08-04T14:45:07.612Z,1.50
2023-08-04T14:47:10.685Z,1.27
2023-08-04T14:49:12.803Z,1.00
2023-08-04T14:51:17.098Z,1.08
2023-08-04T14:53:20.099Z,1.48
2023-08-04T14:55:22.995Z,1.90
2023-08-04T14:57:28.104Z,3.22
2023-08-04T14:59:31.730Z,1.45
2023-08-04T15:01:34.669Z,1.63
2023-08-04T15:03:39.091Z,1.42
2023-08-04T15:05:42.182Z,1.73
2023-08-04T15:07:46.466Z,1.45
2023-08-04T15:09:49.511Z,1.15
2023-08-04T15:11:52.570Z,1.75
2023-08-04T15:13:55.558Z,1.23
2023-08-04T15:16:01.429Z,1.48
2023-08-04T15:18:04.532Z,1.60
2023-08-04T15:20:09.215Z,1.33
2023-08-04T15:22:12.920Z,1.40
2023-08-04T15:24:17.262Z,1.63
2023-08-04T15:26:20.338Z,1.17
2023-08-04T15:28:23.563Z,1.20
2023-08-04T15:30:26.563Z,2.15
2023-08-04T15:32:29.692Z,0.93
2023-08-04T15:34:33.543Z,1.10
2023-08-04T15:36:36.385Z,1.10
2023-08-04T15:38:40.395Z,0.90
2023-08-04T15:40:46.846Z,1.08
2023-08-04T15:42:50.696Z,1.20
2023-08-04T15:44:53.811Z,1.27
2023-08-04T15:46:57.533Z,0.80
2023-08-04T15:49:00.719Z,0.90
2023-08-04T15:51:03.904Z,0.70
2023-08-04T15:53:06.908Z,1.10
2023-08-04T15:55:13.113Z,1.10
2023-08-04T15:57:18.218Z,1.35
2023-08-04T15:59:21.765Z,1.02
2023-08-04T16:01:23.902Z,1.77
2023-08-04T16:03:26.851Z,1.60
2023-08-04T16:05:29.831Z,1.10
2023-08-04T16:07:32.709Z,1.05
2023-08-04T16:09:35.686Z,1.58
2023-08-04T16:11:38.642Z,1.20
2023-08-04T16:13:43.176Z,1.05
2023-08-04T16:15:46.270Z,0.90
2023-08-04T16:17:49.754Z,0.80
2023-08-04T16:19:52.730Z,1.30
2023-08-04T16:21:54.697Z,1.42
2023-08-04T16:23:57.698Z,1.60
2023-08-04T16:26:00.723Z,1.48
2023-08-04T16:28:03.651Z,1.65
2023-08-04T16:30:09.763Z,1.80
2023-08-04T16:32:13.084Z,1.60
2023-08-04T16:34:15.956Z,0.90
2023-08-04T16:36:18.995Z,1.30
2023-08-04T16:38:22.148Z,1.20
2023-08-04T16:40:25.567Z,1.25
2023-08-04T16:42:29.469Z,1.35
2023-08-04T16:44:32.499Z,1.15
2023-08-04T16:46:36.968Z,1.13
2023-08-04T16:48:39.970Z,1.10
2023-08-04T16:50:42.898Z,1.30
2023-08-04T16:52:45.831Z,1.27
2023-08-04T16:54:48.877Z,1.10
2023-08-04T16:56:52.019Z,1.10
2023-08-04T16:58:54.069Z,1.50
2023-08-04T17:00:56.994Z,1.77
2023-08-04T17:03:02.149Z,1.30
2023-08-04T17:05:04.715Z,1.75
2023-08-04T17:07:08.178Z,1.67
2023-08-04T17:09:11.118Z,1.75
2023-08-04T17:11:14.117Z,1.65
2023-08-04T17:13:17.072Z,2.08
2023-08-04T17:15:33.892Z,1.40
2023-08-04T17:17:39.128Z,1.60
2023-08-04T17:19:43.592Z,1.70
2023-08-04T17:21:47.090Z,1.77
2023-08-04T17:23:50.147Z,2.38
2023-08-04T17:25:53.515Z,1.67
2023-08-04T17:27:56.754Z,1.70
2023-08-04T17:29:58.908Z,1.95
2023-08-04T17:32:02.116Z,2.58
2023-08-04T17:34:05.565Z,2.40
2023-08-04T17:36:08.915Z,2.20
2023-08-04T17:38:12.076Z,2.03
2023-08-04T17:40:15.087Z,1.70
2023-08-04T17:42:18.074Z,1.70
2023-08-04T17:44:21.343Z,1.95
2023-08-04T17:46:24.621Z,2.25
2023-08-04T17:48:27.589Z,1.60
2023-08-04T17:50:29.554Z,1.90
2023-08-04T17:52:33.906Z,1.92
2023-08-04T17:54:36.944Z,1.67
2023-08-04T17:56:39.999Z,1.65
2023-08-04T17:58:42.983Z,1.65
2023-08-04T18:00:46.638Z,1.73
2023-08-04T18:02:49.830Z,1.85
2023-08-04T18:04:53.157Z,2.03
2023-08-04T18:06:56.263Z,2.00
2023-08-04T18:09:00.594Z,1.75
2023-08-04T18:11:03.853Z,1.83
2023-08-04T18:13:05.813Z,1.73
2023-08-04T18:15:09.492Z,1.90
2023-08-04T18:17:12.588Z,1.52
2023-08-04T18:19:14.682Z,2.00
2023-08-04T18:21:17.588Z,1.77
2023-08-04T18:23:20.545Z,1.77
2023-08-04T18:25:24.869Z,2.00
2023-08-04T18:27:27.890Z,2.10
2023-08-04T18:29:30.846Z,1.45
2023-08-04T18:31:33.873Z,1.90
2023-08-04T18:33:36.862Z,2.20
2023-08-04T18:35:39.860Z,1.70
2023-08-04T18:37:42.946Z,2.20
2023-08-04T18:39:48.118Z,1.85
2023-08-04T18:41:53.280Z,2.40
2023-08-04T18:43:56.238Z,2.33
2023-08-04T18:45:59.319Z,2.53
2023-08-04T18:48:02.366Z,2.00
2023-08-04T18:50:05.922Z,2.53
2023-08-04T18:52:09.585Z,2.35
2023-08-04T18:54:13.114Z,3.00
2023-08-04T18:56:16.301Z,3.38
2023-08-04T18:58:20.692Z,2.58
2023-08-04T19:00:25.568Z,2.72
2023-08-04T19:02:29.102Z,2.72
2023-08-04T19:04:32.279Z,2.47
2023-08-04T19:06:35.434Z,2.90
2023-08-04T19:08:38.492Z,2.95
2023-08-04T19:10:41.523Z,2.65
2023-08-04T19:12:45.657Z,3.08
2023-08-04T19:14:50.818Z,2.42
2023-08-04T19:16:53.905Z,2.70
2023-08-04T19:18:56.966Z,2.90
2023-08-04T19:20:59.918Z,3.30
2023-08-04T19:23:02.922Z,3.80
2023-08-04T19:25:07.349Z,3.15
2023-08-04T19:27:10.317Z,2.95
2023-08-04T19:29:13.351Z,3.35
2023-08-04T19:31:18.353Z,2.38
2023-08-04T19:33:21.597Z,2.65
2023-08-04T19:35:24.629Z,2.65
2023-08-04T19:37:27.945Z,2.55
2023-08-04T19:39:30.999Z,2.45
2023-08-04T19:41:34.050Z,2.42
2023-08-04T19:43:37.380Z,3.60
2023-08-04T19:45:40.401Z,2.53
2023-08-04T19:47:45.058Z,2.90
2023-08-04T19:49:48.121Z,2.40
2023-08-04T19:51:51.479Z,2.47
2023-08-04T19:53:55.122Z,2.50
2023-08-04T19:56:08.357Z,3.00
2023-08-04T19:58:12.899Z,3.03
2023-08-04T20:00:16.036Z,3.58
2023-08-04T20:05:56.643Z,3.38
2023-08-04T20:07:59.625Z,2.90
2023-08-04T20:10:02.796Z,2.92
2023-08-04T20:12:06.727Z,2.92
2023-08-04T20:14:09.846Z,3.25
2023-08-04T20:16:15.989Z,2.40
2023-08-04T20:18:19.210Z,3.22
2023-08-04T20:20:22.322Z,2.58
2023-08-04T20:22:26.707Z,2.13
2023-08-04T20:24:29.754Z,2.83
2023-08-04T20:26:32.645Z,3.38
2023-08-04T20:28:35.726Z,2.75
2023-08-04T20:30:38.716Z,3.13
2023-08-04T20:32:42.264Z,2.90
2023-08-04T20:34:45.839Z,3.08
2023-08-04T20:36:49.450Z,2.90
2023-08-04T20:38:54.061Z,2.80
2023-08-04T20:41:02.182Z,2.67
2023-08-04T20:43:05.115Z,2.42
2023-08-04T20:45:09.664Z,2.67
2023-08-04T20:47:12.701Z,3.17
2023-08-04T20:49:16.341Z,2.92
2023-08-04T20:51:19.450Z,2.88
2023-08-04T20:53:21.777Z,2.90
2023-08-04T20:55:26.194Z,3.20
2023-08-04T20:57:29.800Z,2.78
2023-08-04T20:59:35.479Z,4.00
2023-08-04T21:01:38.537Z,3.00
2023-08-04T21:03:41.448Z,2.80
2023-08-04T21:05:44.920Z,3.90
2023-08-04T21:07:47.833Z,3.65
2023-08-04T21:09:50.861Z,2.30
2023-08-04T21:11:55.278Z,2.25
2023-08-04T21:13:58.239Z,2.25
2023-08-04T21:16:01.531Z,2.15
2023-08-04T21:18:04.148Z,2.13
2023-08-04T21:20:09.628Z,2.05
2023-08-04T21:22:13.226Z,2.28
2023-08-04T21:24:16.161Z,1.98
2023-08-04T21:26:20.334Z,1.80
2023-08-04T21:28:24.836Z,2.60
2023-08-04T21:30:27.956Z,2.60
2023-08-04T21:32:30.105Z,2.70
2023-08-04T21:34:33.189Z,2.97
2023-08-04T21:36:36.299Z,2.78
2023-08-04T21:38:39.298Z,2.15
2023-08-04T21:40:42.646Z,2.88
2023-08-04T21:42:46.778Z,2.20
2023-08-04T21:44:54.919Z,2.97
2023-08-04T21:46:57.932Z,1.85
2023-08-04T21:49:01.084Z,2.28
2023-08-04T21:51:10.294Z,2.60
2023-08-04T21:53:14.933Z,2.25
2023-08-04T21:55:19.610Z,2.17
2023-08-04T21:57:22.766Z,2.58
2023-08-04T21:59:25.846Z,2.03
2023-08-04T22:01:30.252Z,2.40
2023-08-04T22:03:33.510Z,2.28
2023-08-04T22:05:36.590Z,2.13
2023-08-04T22:07:40.297Z,2.35
2023-08-04T22:09:43.489Z,2.10
2023-08-04T22:11:46.483Z,2.22
2023-08-04T22:13:49.483Z,2.38
2023-08-04T22:15:52.626Z,2.92
2023-08-04T22:17:57.116Z,2.22
2023-08-04T22:20:00.258Z,2.42
2023-08-04T22:22:06.525Z,2.40
2023-08-04T22:24:09.537Z,2.40
2023-08-04T22:26:12.724Z,2.85
2023-08-04T22:28:16.284Z,2.53
2023-08-04T22:30:19.516Z,3.05
2023-08-04T22:32:22.463Z,2.53
2023-08-04T22:34:26.872Z,2.67
2023-08-04T22:36:28.836Z,2.08
2023-08-04T22:38:31.969Z,2.20
2023-08-04T22:40:34.941Z,3.05
2023-08-04T22:42:37.965Z,2.97
2023-08-04T22:44:41.071Z,3.00
2023-08-04T22:46:44.271Z,2.40
2023-08-04T22:48:47.326Z,2.75
2023-08-04T22:50:51.665Z,2.72
2023-08-04T22:52:54.509Z,3.50
2023-08-04T22:54:57.530Z,2.58
2023-08-04T22:57:00.514Z,3.53
2023-08-04T22:59:03.445Z,2.50
2023-08-04T23:01:06.908Z,2.65
2023-08-04T23:03:10.521Z,2.53
2023-08-04T23:05:13.830Z,2.72
2023-08-04T23:07:18.146Z,2.80
2023-08-04T23:09:21.058Z,2.58
2023-08-04T23:11:24.193Z,4.18
2023-08-04T23:13:27.467Z,2.63
2023-08-04T23:15:29.395Z,2.33
2023-08-04T23:17:32.440Z,2.22
2023-08-04T23:19:35.364Z,2.40
2023-08-04T23:21:38.341Z,2.80
2023-08-04T23:23:42.667Z,2.88
2023-08-04T23:25:45.142Z,3.10
2023-08-04T23:27:48.057Z,3.60
2023-08-04T23:29:51.027Z,2.92
2023-08-04T23:31:53.944Z,2.40
2023-08-04T23:33:56.870Z,3.33
2023-08-04T23:35:59.846Z,2.65
2023-08-04T23:38:01.788Z,3.10
2023-08-04T23:40:07.559Z,2.63
2023-08-04T23:42:10.479Z,2.90
2023-08-04T23:44:13.439Z,3.65
2023-08-04T23:46:16.541Z,2.90
2023-08-04T23:48:19.576Z,3.17
2023-08-04T23:50:22.506Z,3.28
2023-08-04T23:52:25.454Z,3.15
2023-08-04T23:54:28.366Z,3.53
2023-08-04T23:56:32.609Z,3.38
2023-08-04T23:58:35.541Z,3.20
